createdAt,value
2023-08-04T00:31:04.234Z,17.60
2023-08-04T00:34:42.747Z,17.76
2023-08-04T00:39:02.541Z,17.79
2023-08-04T01:12:55.472Z,17.50
2023-08-04T01:16:41.648Z,17.45
2023-08-04T01:20:24.490Z,17.31
2023-08-04T01:24:07.127Z,17.14
2023-08-04T01:27:52.270Z,17.07
2023-08-04T01:31:36.974Z,16.99
2023-08-04T01:35:19.188Z,16.99
2023-08-04T01:39:04.485Z,16.93
2023-08-04T01:43:13.632Z,16.90
2023-08-04T01:46:49.502Z,16.89
2023-08-04T01:50:39.682Z,16.94
2023-08-04T01:54:14.868Z,17.00
2023-08-04T01:57:46.927Z,16.99
2023-08-04T02:01:21.980Z,17.01
2023-08-04T02:04:41.164Z,17.05
2023-08-04T02:08:21.754Z,17.11
2023-08-04T02:12:06.184Z,17.08
2023-08-04T02:15:37.939Z,17.16
2023-08-04T02:19:18.752Z,17.17
2023-08-04T02:22:56.216Z,17.05
2023-08-04T02:26:40.833Z,17.01
2023-08-04T02:30:18.118Z,16.97
2023-08-04T02:34:01.875Z,16.96
2023-08-04T02:37:43.521Z,16.91
2023-08-04T02:41:26.491Z,16.88
2023-08-04T02:45:03.554Z,16.87
2023-08-04T02:48:47.927Z,16.90
2023-08-04T02:52:17.664Z,16.89
2023-08-04T02:55:56.283Z,16.88
2023-08-04T02:59:37.351Z,16.84
2023-08-04T03:03:12.819Z,16.88
2023-08-04T03:06:44.510Z,16.98
2023-08-04T03:10:26.567Z,16.95
2023-08-04T03:14:28.798Z,16.98
2023-08-04T03:18:11.929Z,16.93
2023-08-04T03:21:49.044Z,16.84
2023-08-04T03:25:45.016Z,16.77
2023-08-04T03:29:15.532Z,16.74
2023-08-04T03:32:55.245Z,16.77
2023-08-04T03:36:27.739Z,16.70
2023-08-04T03:40:02.752Z,16.70
2023-08-04T03:47:37.226Z,16.74
2023-08-04T03:51:13.808Z,16.73
2023-08-04T03:55:13.303Z,16.77
2023-08-04T04:02:40.008Z,16.79
2023-08-04T04:06:18.826Z,16.73
2023-08-04T04:13:46.789Z,16.75
2023-08-04T04:17:36.326Z,16.87
2023-08-04T04:21:16.158Z,16.96
2023-08-04T06:15:48.694Z,18.33
2023-08-04T06:19:26.077Z,18.47
2023-08-04T06:23:26.642Z,18.56
2023-08-04T06:40:24.612Z,19.12
2023-08-04T06:48:19.733Z,19.51
2023-08-04T06:52:03.337Z,19.57
2023-08-04T06:55:47.290Z,19.72
2023-08-04T06:59:35.981Z,19.85
2023-08-04T07:03:18.517Z,19.96
2023-08-04T07:06:54.726Z,20.09
2023-08-04T07:10:29.296Z,20.37
2023-08-04T07:13:58.644Z,20.50
2023-08-04T07:28:39.532Z,21.51
2023-08-04T07:32:26.207Z,22.05
2023-08-04T07:46:55.788Z,23.10
2023-08-04T08:24:46.905Z,26.18
2023-08-04T08:28:21.976Z,26.66
2023-08-04T08:31:41.345Z,27.31
2023-08-04T08:35:18.582Z,27.30
2023-08-04T08:39:01.423Z,25.78
2023-08-04T08:42:40.545Z,27.28
2023-08-04T08:46:21.763Z,28.02
2023-08-04T08:50:03.684Z,28.34
2023-08-04T08:53:59.606Z,27.83
2023-08-04T08:57:44.375Z,28.73
2023-08-04T09:04:54.160Z,29.51
2023-08-04T09:08:24.320Z,28.85
2023-08-04T09:12:00.239Z,29.74
2023-08-04T09:15:49.500Z,29.78
2023-08-04T09:19:40.620Z,30.78
2023-08-04T09:23:15.275Z,30.97
2023-08-04T09:26:51.863Z,31.31
2023-08-04T09:30:31.571Z,31.19
2023-08-04T09:34:22.447Z,32.20
2023-08-04T09:37:43.818Z,32.29
2023-08-04T09:41:13.413Z,31.57
2023-08-04T09:44:54.579Z,32.56
2023-08-04T09:48:33.108Z,31.99
2023-08-04T09:52:10.193Z,32.08
2023-08-04T09:55:49.488Z,32.10
2023-08-04T09:59:13.424Z,32.63
2023-08-04T10:02:52.620Z,32.72
2023-08-04T10:06:31.810Z,31.58
2023-08-04T10:10:10.063Z,30.84
2023-08-04T10:17:33.148Z,31.88
2023-08-04T10:21:04.283Z,32.58
2023-08-04T10:24:51.197Z,32.42
2023-08-04T10:28:57.971Z,32.14
2023-08-04T10:32:39.648Z,31.67
2023-08-04T10:36:05.623Z,33.62
2023-08-04T10:39:57.668Z,33.77
2023-08-04T10:43:34.743Z,32.32
2023-08-04T10:46:54.607Z,32.26
2023-08-04T10:50:20.365Z,33.03
2023-08-04T10:54:09.430Z,33.99
2023-08-04T10:57:48.494Z,33.78
2023-08-04T11:01:30.209Z,32.56
2023-08-04T11:05:04.438Z,33.56
2023-08-04T11:08:39.962Z,31.46
2023-08-04T11:20:22.326Z,33.29
2023-08-04T11:27:36.488Z,33.71
2023-08-04T11:31:07.207Z,34.35
2023-08-04T11:38:32.903Z,34.15
2023-08-04T11:42:28.089Z,35.02
2023-08-04T11:46:07.743Z,34.12
2023-08-04T11:49:54.143Z,34.33
2023-08-04T11:53:21.194Z,34.66
2023-08-04T11:56:41.334Z,34.94
2023-08-04T12:53:57.401Z,31.51
2023-08-04T12:57:37.578Z,31.40
2023-08-04T13:08:36.413Z,31.35
2023-08-04T13:27:17.448Z,30.78
2023-08-04T16:31:41.912Z,28.48
2023-08-04T23:52:32.981Z,18.77
